Nearby METAR Reports

 

GCLP - Las Palmas/Gando, Spain
Distance from station: NE 26km
Updated: 20/02/2018 13:00
Few Clouds
Few Clouds
 Wind from NNE
Wind: NNE 37 km/h
Temperature: 20°C
Dew Point: 10°C
Humidity: 53%
Barometer: 1017 hPa
Clouds: Few Clouds
Visibility: 10 km
Cloud details: Few Clouds 1067 m
2018/02/20 13:00 GCLP 201300Z 03020KT 9999 FEW035 20/10 Q1017 NOSIG
GCTS - Tenerife Sur/Rei, Spain
Distance from station: WNW 102km
Updated: 20/02/2018 13:00
Mostly cloudy
Mostly cloudy
 Wind from ESE
Wind: ESE 19 km/h
Temperature: 18°C
Dew Point: 11°C
Humidity: 64%
Barometer: 1017 hPa
Clouds: Mostly cloudy
Visibility: 10 km
Cloud details: Few Clouds 1067 m
Mostly cloudy 1372 m
2018/02/20 13:00 GCTS 201300Z 11010KT 080V140 9999 FEW035 BKN045 18/11 Q1017 NOSIG
 
GCXO - Tenerife/Los Rod, Spain
Distance from station: NW 110km
Updated: 20/02/2018 13:00
Mostly cloudy
Mostly cloudy
 Wind from NW
Wind: NW 24 km/h
Temperature: 14°C
Dew Point: 11°C
Humidity: 82%
Barometer: 1018 hPa
Clouds: Mostly cloudy
Visibility: 10 km
Cloud details: Few Clouds 213 m
Mostly cloudy 366 m
2018/02/20 13:00 GCXO 201300Z 31013KT 280V340 9999 FEW007 BKN012 14/11 Q1018 NOSIG
GCGM - La Gomera Arpt, Spain
Distance from station: W 164km
Updated: 20/02/2018 13:00
Few Clouds
Few Clouds
 Wind from varies
Wind: varies 9 km/h
Temperature: 19°C
Dew Point: 9°C
Humidity: 52%
Barometer: 1018 hPa
Clouds: Few Clouds
Visibility: 10 km
Cloud details: Few Clouds 914 m
2018/02/20 13:00 GCGM 201300Z VRB05KT 9999 FEW030 19/09 Q1018 RMK R09/24005KT 190V290 ARP/VRB04KT
 
GCFV - Fuerteventura Ar, Spain
Distance from station: ENE 183km
Updated: 20/02/2018 13:00
Partly cloudy
Partly cloudy
 Wind from NE
Wind: NE 22 km/h
Temperature: 19°C
Dew Point: 11°C
Humidity: 60%
Barometer: 1016 hPa
Clouds: Partly cloudy
Visibility: 10 km
Cloud details: Partly cloudy 1219 m
2018/02/20 13:00 GCFV 201300Z 05012KT 9999 SCT040 19/11 Q1016
GCHI - Hierro Airport, Spain
Distance from station: W 226km
Updated: 20/02/2018 13:00
Few Clouds
Few Clouds
 Wind from NNE
Wind: NNE 22 km/h
Temperature: 20°C
Dew Point: 12°C
Humidity: 60%
Barometer: 1018 hPa
Clouds: Few Clouds
Visibility: 10 km
Cloud details: Few Clouds 853 m
2018/02/20 13:00 GCHI 201300Z 02012KT 350V050 9999 FEW028 20/12 Q1018
 
GCLA - La Palma Airport, Spain
Distance from station: WNW 233km
Updated: 20/02/2018 13:00
Few Clouds
Few Clouds
 Wind from NNE
Wind: NNE 24 km/h
Temperature: 20°C
Dew Point: 12°C
Humidity: 60%
Barometer: 1018 hPa
Clouds: Few Clouds
Visibility: 10 km
Cloud details: Few Clouds 914 m
2018/02/20 13:00 GCLA 201300Z 02013KT 9999 FEW030 20/12 Q1018
GCRR - Arrecife/Lanzaro, Spain
Distance from station: NE 234km
Updated: 20/02/2018 13:00
Partly cloudy
Partly cloudy
 Wind from N
Wind: N 26 km/h
Temperature: 20°C
Dew Point: 10°C
Humidity: 53%
Barometer: 1016 hPa
Clouds: Partly cloudy
Visibility: 10 km
Cloud details: Partly cloudy 1067 m
2018/02/20 13:00 GCRR 201300Z 01014KT 330V050 9999 SCT035 20/10 Q1016
 
LPMA - Funchal/Madeira, Portugal
Distance from station: NNW 556km
Updated: 20/02/2018 13:00
Partly cloudy
Partly cloudy
 Wind from N
Wind: N 28 km/h
Temperature: 18°C
Dew Point: 10°C
Humidity: 60%
Barometer: 1020 hPa
Clouds: Partly cloudy
Visibility: 10 km
Cloud details: Partly cloudy 457 m
2018/02/20 13:00 LPMA 201300Z 01015KT 350V050 9999 SCT015 18/10 Q1020
LPPS - Porto Santo Isla, Portugal
Distance from station: N 594km
Updated: 20/02/2018 13:00
Partly cloudy
Partly cloudy
 Wind from NNE
Wind: NNE 30 km/h
Temperature: 17°C
Dew Point: 10°C
Humidity: 64%
Barometer: 1020 hPa
Clouds: Partly cloudy
Visibility: 10 km
Cloud details: Partly cloudy 457 m
2018/02/20 13:00 LPPS 201300Z 03016KT 9999 SCT015 17/10 Q1020